Time;durP1;ratioP1;P1;durP2;ratioP2;P2;SDS_P1;SDS_P2;PMS_P1;PMS_P2;Temp;Humidity;BMP_temperature;BMP_pressure;BME280_temperature;BME280_humidity;BME280_pressure;Samples;Min_cycle;Max_cycle;Signal;HPM_P1;HPM_P2
2022/09/24 00:00:54;;;;;;;5.30;3.00;;;;;;;8.97;100.00;99149.44;5153076;27;20055;-58
2022/09/24 00:03:21;;;;;;;4.00;2.90;;;;;;;8.84;100.00;99161.63;5153114;27;20047;-58
2022/09/24 00:05:47;;;;;;;5.93;3.38;;;;;;;8.75;100.00;99153.59;5152847;27;20061;-58
2022/09/24 00:08:16;;;;;;;3.40;3.10;;;;;;;8.86;100.00;99146.47;5152889;27;20072;-58
2022/09/24 00:10:44;;;;;;;3.60;3.05;;;;;;;8.91;100.00;99143.44;5153213;27;20058;-58
2022/09/24 00:13:12;;;;;;;3.83;3.20;;;;;;;8.89;100.00;99145.72;5152775;27;20111;-58
2022/09/24 00:15:39;;;;;;;5.10;3.90;;;;;;;9.01;100.00;99142.09;5153041;27;20413;-58
2022/09/24 00:18:06;;;;;;;4.32;2.85;;;;;;;8.64;100.00;99145.13;5152707;27;20069;-58
2022/09/24 00:20:33;;;;;;;3.90;2.88;;;;;;;8.84;100.00;99132.34;5152774;27;20103;-58
2022/09/24 00:23:00;;;;;;;4.75;2.85;;;;;;;8.88;100.00;99125.00;5152427;27;20053;-58
2022/09/24 00:28:12;;;;;;;5.07;3.25;;;;;;;9.04;100.00;99108.59;5152720;27;20053;-58
2022/09/24 00:30:38;;;;;;;2.45;2.25;;;;;;;8.86;100.00;99123.78;5152571;27;20051;-59
2022/09/24 00:33:05;;;;;;;5.63;3.38;;;;;;;9.05;100.00;99126.56;5152420;27;20050;-58
2022/09/24 00:35:31;;;;;;;5.32;3.50;;;;;;;8.78;100.00;99141.16;5152287;27;20433;-58
2022/09/24 00:37:57;;;;;;;3.53;3.22;;;;;;;8.84;100.00;99120.63;5152574;27;20433;-58
2022/09/24 00:40:27;;;;;;;4.22;3.53;;;;;;;8.84;100.00;99109.69;5152520;27;20046;-58
2022/09/24 00:42:53;;;;;;;4.60;3.60;;;;;;;8.84;100.00;99106.94;5152623;27;20051;-58
2022/09/24 00:45:20;;;;;;;3.67;3.03;;;;;;;8.78;100.00;99100.16;5152072;27;20505;-58
2022/09/24 00:47:47;;;;;;;3.67;3.33;;;;;;;8.82;100.00;99098.28;5152339;27;20046;-58
2022/09/24 00:50:18;;;;;;;4.57;3.22;;;;;;;8.98;100.00;99090.88;5152362;27;20092;-58
2022/09/24 00:52:50;;;;;;;4.90;3.72;;;;;;;8.65;100.00;99096.72;5152013;27;20470;-58
2022/09/24 00:55:18;;;;;;;5.55;3.50;;;;;;;8.86;100.00;99074.56;5152171;27;20043;-58
2022/09/24 00:57:48;;;;;;;3.72;3.20;;;;;;;8.98;100.00;99074.47;5152043;27;20082;-58
2022/09/24 01:00:15;;;;;;;5.22;2.80;;;;;;;8.80;100.00;99065.84;5152020;27;20540;-58
2022/09/24 01:02:46;;;;;;;6.32;3.67;;;;;;;8.65;100.00;99051.06;5151971;27;20053;-58
2022/09/24 01:05:12;;;;;;;5.45;3.67;;;;;;;8.84;100.00;99044.06;5151900;27;20092;-58
2022/09/24 01:07:38;;;;;;;4.68;3.47;;;;;;;8.89;100.00;99051.97;5151851;27;20406;-58
2022/09/24 01:10:05;;;;;;;4.28;3.50;;;;;;;8.85;100.00;99046.44;5152143;27;20137;-58
2022/09/24 01:12:42;;;;;;;6.63;3.10;;;;;;;8.76;100.00;99055.97;5151821;27;20505;-58
2022/09/24 01:15:17;;;;;;;3.45;3.13;;;;;;;8.87;100.00;99057.81;5151774;27;20051;-58
2022/09/24 01:17:49;;;;;;;;;;;;;;;8.38;100.00;99071.09;5152369;27;20057;-59
2022/09/24 01:20:50;;;;;;;4.68;3.13;;;;;;;8.66;100.00;99036.25;5151718;27;19923;-58
2022/09/24 01:23:37;;;;;;;3.65;3.10;;;;;;;8.57;100.00;99026.66;5151875;27;20467;-58
2022/09/24 01:26:18;;;;;;;9.10;3.53;;;;;;;8.66;100.00;99033.53;5151496;27;20051;-58
2022/09/24 01:28:57;;;;;;;3.90;3.35;;;;;;;8.45;100.00;99025.59;5151500;27;20061;-58
2022/09/24 01:31:31;;;;;;;5.18;3.72;;;;;;;8.54;100.00;99014.50;5151546;27;20050;-58
2022/09/24 01:34:01;;;;;;;4.87;3.87;;;;;;;8.59;100.00;99006.00;5151812;27;20103;-58
2022/09/24 01:36:29;;;;;;;5.60;3.65;;;;;;;8.71;100.00;99005.91;5151471;27;20072;-58
2022/09/24 01:38:57;;;;;;;4.63;3.13;;;;;;;8.74;100.00;99025.50;5151291;27;20043;-58
2022/09/24 01:41:24;;;;;;;5.22;3.45;;;;;;;8.21;100.00;99029.28;5151678;27;20520;-58
2022/09/24 01:43:51;;;;;;;3.70;3.08;;;;;;;8.61;100.00;99000.22;5151453;27;20054;-58
2022/09/24 01:46:19;;;;;;;5.28;3.30;;;;;;;8.74;100.00;99009.09;5150437;27;20501;-58
2022/09/24 01:48:47;;;;;;;5.00;3.05;;;;;;;8.66;100.00;99008.13;5151322;27;20092;-58
2022/09/24 01:51:18;;;;;;;4.95;3.35;;;;;;;8.82;100.00;99016.28;5151140;27;20107;-58
2022/09/24 01:53:50;;;;;;;4.68;3.53;;;;;;;8.60;100.00;99025.97;5151306;27;20046;-58
2022/09/24 01:56:23;;;;;;;3.85;2.83;;;;;;;8.85;100.00;99035.50;5151127;27;20050;-58
2022/09/24 01:58:54;;;;;;;3.17;2.87;;;;;;;8.70;100.00;99039.06;5151402;27;20099;-58
2022/09/24 02:01:26;;;;;;;4.15;2.92;;;;;;;8.55;100.00;99035.19;5151093;27;20057;-58
2022/09/24 02:03:57;;;;;;;3.33;3.00;;;;;;;8.64;100.00;99024.09;5151435;27;20057;-58
2022/09/24 02:06:30;;;;;;;5.38;3.30;;;;;;;8.73;100.00;99019.22;5151046;27;20107;-58
2022/09/24 02:08:58;;;;;;;4.03;2.97;;;;;;;8.54;100.00;99013.72;5151260;27;20053;-58
2022/09/24 02:11:26;;;;;;;3.05;2.75;;;;;;;8.75;100.00;99005.19;5151174;27;20046;-58
2022/09/24 02:13:59;;;;;;;3.85;2.90;;;;;;;8.72;100.00;99007.50;5150983;27;20059;-58
2022/09/24 02:16:32;;;;;;;4.45;3.10;;;;;;;8.82;100.00;99008.09;5151051;27;20051;-58
2022/09/24 02:19:05;;;;;;;6.50;3.00;;;;;;;8.87;100.00;99013.28;5150832;27;20076;-58
2022/09/24 02:21:34;;;;;;;6.32;3.30;;;;;;;8.73;100.00;99019.22;5151009;27;20068;-58
2022/09/24 02:24:05;;;;;;;5.30;3.63;;;;;;;8.61;100.00;99017.41;5151428;27;20047;-58
2022/09/24 02:26:31;;;;;;;3.97;3.17;;;;;;;8.78;100.00;98994.34;5150730;27;20084;-58
2022/09/24 02:28:58;;;;;;;4.63;2.97;;;;;;;8.61;100.00;99001.00;5150555;27;20047;-59
2022/09/24 02:31:29;;;;;;;3.92;2.95;;;;;;;8.92;100.00;98983.72;5150674;27;20075;-59
2022/09/24 02:36:44;;;;;;;4.40;2.80;;;;;;;8.56;100.00;98997.72;5150804;27;20057;-59
2022/09/24 02:39:10;;;;;;;4.47;2.58;;;;;;;8.88;100.00;98977.38;5150918;27;20542;-59
2022/09/24 02:41:37;;;;;;;3.72;2.65;;;;;;;8.95;100.00;98991.19;5150649;27;20046;-59
2022/09/24 02:44:03;;;;;;;3.50;2.70;;;;;;;8.91;100.00;99004.00;5150865;27;20433;-59
2022/09/24 02:46:30;;;;;;;3.85;3.10;;;;;;;8.83;100.00;99007.75;5150474;27;20526;-59
2022/09/24 02:48:56;;;;;;;3.25;2.67;;;;;;;8.86;100.00;99006.22;5150592;27;20043;-59
2022/09/24 02:51:23;;;;;;;5.20;2.80;;;;;;;8.94;100.00;98989.63;5150609;27;20057;-59
2022/09/24 02:53:49;;;;;;;4.93;2.85;;;;;;;8.79;100.00;99012.31;5150446;27;20421;-59
2022/09/24 02:56:16;;;;;;;5.32;3.13;;;;;;;8.75;100.00;99016.13;5150613;27;20425;-59
2022/09/24 02:58:42;;;;;;;2.65;2.45;;;;;;;8.57;100.00;99016.53;5152885;27;20437;-59
2022/09/24 03:01:08;;;;;;;4.72;2.97;;;;;;;8.80;100.00;98999.47;5154066;27;20054;-59
2022/09/24 03:03:34;;;;;;;2.75;2.40;;;;;;;8.93;100.00;99007.19;5154031;27;20163;-59
2022/09/24 03:06:01;;;;;;;4.38;2.75;;;;;;;8.60;100.00;99009.56;5153872;27;20103;-59
2022/09/24 03:08:27;;;;;;;3.00;2.60;;;;;;;8.67;100.00;99001.53;5154020;27;20557;-59
2022/09/24 03:10:54;;;;;;;2.90;2.42;;;;;;;8.72;100.00;98982.09;5154163;27;20572;-59
2022/09/24 03:13:21;;;;;;;2.67;2.40;;;;;;;8.77;100.00;98981.03;5154109;27;20103;-59
2022/09/24 03:15:47;;;;;;;4.18;2.40;;;;;;;8.89;100.00;98983.63;5154098;27;20057;-59
2022/09/24 03:18:14;;;;;;;4.07;2.10;;;;;;;9.03;100.00;98991.34;5153727;27;20042;-59
2022/09/24 03:20:41;;;;;;;4.53;2.42;;;;;;;8.94;100.00;98997.81;5153754;27;20053;-59
2022/09/24 03:23:07;;;;;;;2.30;2.00;;;;;;;8.91;100.00;99012.22;5153519;27;20471;-59
2022/09/24 03:25:33;;;;;;;4.93;2.28;;;;;;;9.03;100.00;99007.75;5153637;27;20432;-59
2022/09/24 03:28:00;;;;;;;2.72;2.03;;;;;;;8.78;100.00;99027.16;5153804;27;20414;-59
2022/09/24 03:33:11;;;;;;;3.55;2.00;;;;;;;8.80;100.00;98997.53;5153759;27;20056;-59
2022/09/24 03:35:37;;;;;;;2.15;1.95;;;;;;;8.82;100.00;98995.22;5153309;27;20043;-59
2022/09/24 03:38:03;;;;;;;2.65;2.17;;;;;;;8.68;100.00;98994.91;5153454;27;20085;-59
2022/09/24 03:40:30;;;;;;;3.53;2.45;;;;;;;8.75;100.00;98997.00;5153353;27;20047;-58
2022/09/24 03:42:56;;;;;;;2.45;2.25;;;;;;;8.74;100.00;98996.22;5153440;27;20049;-58
2022/09/24 03:45:23;;;;;;;2.83;2.53;;;;;;;8.82;100.00;98992.47;5153196;27;20099;-58
2022/09/24 03:47:49;;;;;;;2.70;2.40;;;;;;;9.03;100.00;98991.34;5153167;27;20051;-58
2022/09/24 03:50:16;;;;;;;4.75;2.53;;;;;;;8.86;100.00;98993.38;5153007;27;20064;-59
2022/09/24 03:52:42;;;;;;;3.38;2.42;;;;;;;8.93;100.00;98998.19;5153067;27;20195;-58
2022/09/24 03:55:09;;;;;;;3.50;2.55;;;;;;;8.97;100.00;99004.53;5153182;27;20047;-58
2022/09/24 03:57:35;;;;;;;3.15;2.88;;;;;;;8.79;100.00;99008.81;5152914;27;20510;-58
2022/09/24 04:00:01;;;;;;;3.88;2.72;;;;;;;8.70;100.00;98984.41;5152996;27;20073;-58
2022/09/24 04:02:28;;;;;;;4.38;3.15;;;;;;;8.33;100.00;98971.06;5152961;27;20461;-58
2022/09/24 04:04:54;;;;;;;3.38;2.60;;;;;;;8.82;100.00;98942.50;5153085;27;20046;-58
2022/09/24 04:07:20;;;;;;;3.80;2.50;;;;;;;8.63;100.00;98948.72;5152765;27;20064;-58
2022/09/24 04:09:47;;;;;;;3.20;2.70;;;;;;;8.85;100.00;98939.03;5152291;27;20042;-58
2022/09/24 04:12:13;;;;;;;4.18;3.10;;;;;;;9.10;100.00;98950.50;5152649;27;20051;-58
2022/09/24 04:14:40;;;;;;;2.88;2.67;;;;;;;9.09;100.00;98968.03;5152784;27;20565;-58
2022/09/24 04:17:06;;;;;;;3.30;2.45;;;;;;;9.14;100.00;98973.25;5152717;27;20062;-57
2022/09/24 04:19:33;;;;;;;3.45;2.47;;;;;;;9.15;100.00;98980.28;5152621;27;20058;-58
2022/09/24 04:21:59;;;;;;;3.00;2.65;;;;;;;9.19;100.00;98981.13;5152647;27;20051;-58
2022/09/24 04:24:25;;;;;;;4.93;3.05;;;;;;;9.24;100.00;98991.81;5152587;27;20502;-58
2022/09/24 04:26:51;;;;;;;3.67;3.10;;;;;;;9.07;100.00;98998.50;5152768;27;20057;-58
2022/09/24 04:29:18;;;;;;;3.58;2.67;;;;;;;9.25;100.00;98998.06;5152839;27;20050;-58
2022/09/24 04:31:44;;;;;;;5.95;2.78;;;;;;;9.14;100.00;99011.53;5152843;27;20387;-58
2022/09/24 04:34:11;;;;;;;3.42;2.90;;;;;;;9.21;100.00;99010.88;5152695;27;20054;-58
2022/09/24 04:36:38;;;;;;;2.72;2.47;;;;;;;8.88;100.00;99017.59;5152602;27;20055;-59
2022/09/24 04:39:04;;;;;;;4.15;3.00;;;;;;;8.91;100.00;99000.50;5152477;27;20051;-58
2022/09/24 04:41:30;;;;;;;5.00;2.60;;;;;;;9.09;100.00;98979.75;5152700;27;20096;-58
2022/09/24 04:43:57;;;;;;;5.90;2.92;;;;;;;9.18;100.00;98983.09;5152085;27;20055;-58
2022/09/24 04:46:23;;;;;;;3.30;3.00;;;;;;;9.14;100.00;98987.69;5152056;27;20050;-58
2022/09/24 04:48:50;;;;;;;3.90;2.78;;;;;;;9.01;100.00;98991.72;5152197;27;20050;-58
2022/09/24 04:51:18;;;;;;;3.65;2.75;;;;;;;9.17;100.00;98986.19;5152039;27;20091;-58
2022/09/24 04:53:46;;;;;;;3.50;3.20;;;;;;;9.19;100.00;98989.34;5152433;27;20046;-59
2022/09/24 04:56:13;;;;;;;6.40;2.75;;;;;;;9.34;100.00;98990.44;5152208;27;20138;-59
2022/09/24 04:58:39;;;;;;;5.53;3.65;;;;;;;9.42;100.00;99006.63;5152011;27;20374;-59
2022/09/24 05:01:05;;;;;;;4.57;2.80;;;;;;;9.11;100.00;99007.56;5151798;27;20050;-59
2022/09/24 05:03:32;;;;;;;3.28;2.63;;;;;;;9.10;100.00;98999.72;5152168;27;20046;-59
2022/09/24 05:05:58;;;;;;;17.05;3.17;;;;;;;9.10;100.00;98992.31;5152043;27;20095;-59
2022/09/24 05:08:24;;;;;;;7.20;2.78;;;;;;;9.26;100.00;98996.91;5151956;27;20047;-59
2022/09/24 05:10:52;;;;;;;3.25;2.70;;;;;;;9.27;100.00;98998.50;5151833;27;20053;-59
2022/09/24 05:13:19;;;;;;;3.83;2.30;;;;;;;9.18;100.00;98990.50;5151803;27;20521;-58
2022/09/24 05:15:45;;;;;;;3.15;2.72;;;;;;;9.36;100.00;98997.16;5152288;27;20051;-58
2022/09/24 05:18:11;;;;;;;3.17;2.75;;;;;;;9.45;100.00;99004.31;5151848;27;20055;-58
2022/09/24 05:20:40;;;;;;;3.28;2.17;;;;;;;9.53;100.00;99022.44;5151024;27;20047;-58
2022/09/24 05:23:06;;;;;;;3.00;2.70;;;;;;;9.59;100.00;99027.28;5151855;27;20470;-58
2022/09/24 05:25:32;;;;;;;3.25;2.15;;;;;;;9.75;100.00;99035.41;5151609;27;20046;-58
2022/09/24 05:27:59;;;;;;;4.55;2.60;;;;;;;9.73;100.00;99047.88;5151664;27;20501;-58
2022/09/24 05:30:25;;;;;;;6.10;2.58;;;;;;;9.73;100.00;99061.56;5151778;27;20050;-58
2022/09/24 05:32:52;;;;;;;4.50;2.67;;;;;;;9.74;100.00;99065.91;5151665;27;20046;-58
2022/09/24 05:35:18;;;;;;;2.70;2.50;;;;;;;9.77;100.00;99071.44;5151709;27;20053;-59
2022/09/24 05:37:47;;;;;;;3.35;2.55;;;;;;;9.71;100.00;99078.34;5151547;27;20111;-58
2022/09/24 05:43:00;;;;;;;2.50;2.30;;;;;;;9.64;100.00;99080.94;5151505;27;20061;-58
2022/09/24 05:45:26;;;;;;;3.03;2.42;;;;;;;9.72;100.00;99079.94;5151325;27;20053;-59
2022/09/24 05:47:53;;;;;;;2.83;2.47;;;;;;;9.09;100.00;99066.50;5151541;27;20058;-59
2022/09/24 05:50:19;;;;;;;2.42;2.22;;;;;;;9.18;100.00;99045.22;5151365;27;20046;-58
2022/09/24 05:52:45;;;;;;;3.30;2.40;;;;;;;9.59;100.00;99016.31;5151502;27;20049;-58
2022/09/24 05:55:11;;;;;;;5.45;3.13;;;;;;;9.77;100.00;99027.63;5151293;27;20047;-58
2022/09/24 05:57:38;;;;;;;2.28;2.08;;;;;;;9.56;100.00;99046.38;5151476;27;20502;-58
2022/09/24 06:00:06;;;;;;;3.85;2.42;;;;;;;9.21;100.00;99019.88;5151196;27;20506;-58
2022/09/24 06:02:33;;;;;;;4.03;2.47;;;;;;;9.55;100.00;98995.53;5151084;27;20054;-59
2022/09/24 06:04:59;;;;;;;3.78;2.50;;;;;;;9.92;100.00;99005.97;5151129;27;20054;-59
2022/09/24 06:07:25;;;;;;;2.20;2.00;;;;;;;9.84;100.00;99024.22;5151378;27;20042;-59
2022/09/24 06:09:51;;;;;;;4.65;2.40;;;;;;;9.56;100.00;99028.03;5150991;27;20418;-59
2022/09/24 06:12:18;;;;;;;3.13;2.40;;;;;;;9.57;100.00;99018.66;5151056;27;20047;-59
2022/09/24 06:14:44;;;;;;;3.47;2.65;;;;;;;9.44;100.00;99017.22;5151094;27;20398;-58
2022/09/24 06:17:11;;;;;;;2.90;2.40;;;;;;;9.74;100.00;99000.19;5151174;27;20062;-58
2022/09/24 06:19:38;;;;;;;3.72;2.78;;;;;;;9.76;100.00;99019.78;5151210;27;20043;-59
2022/09/24 06:22:04;;;;;;;3.33;2.70;;;;;;;9.53;100.00;99016.97;5150981;27;20506;-58
2022/09/24 06:24:30;;;;;;;3.53;2.60;;;;;;;9.54;100.00;99035.00;5150987;27;20111;-58
2022/09/24 06:26:57;;;;;;;4.45;3.13;;;;;;;9.63;100.00;99022.69;5150730;27;20047;-58
2022/09/24 06:29:23;;;;;;;4.68;2.92;;;;;;;9.73;100.00;99021.31;5151028;27;20061;-58
2022/09/24 06:31:52;;;;;;;4.50;3.20;;;;;;;9.76;100.00;99030.72;5151834;27;20047;-59
2022/09/24 06:34:19;;;;;;;4.00;3.38;;;;;;;9.73;100.00;99026.78;5154230;27;20057;-59
2022/09/24 06:36:45;;;;;;;3.85;2.90;;;;;;;9.68;100.00;99018.06;5154401;27;20054;-59
2022/09/24 06:39:11;;;;;;;4.07;2.95;;;;;;;9.77;100.00;99024.91;5154261;27;20050;-59
2022/09/24 06:41:37;;;;;;;5.97;3.30;;;;;;;9.85;100.00;99021.13;5154092;27;20502;-59
2022/09/24 06:44:03;;;;;;;5.82;3.45;;;;;;;9.64;100.00;99031.69;5154281;27;20055;-59
2022/09/24 06:46:30;;;;;;;5.85;3.55;;;;;;;9.73;100.00;99032.25;5154491;27;20054;-59
2022/09/24 06:48:56;;;;;;;4.30;3.20;;;;;;;9.95;100.00;99017.00;5154569;27;20050;-59
2022/09/24 06:51:23;;;;;;;5.57;3.88;;;;;;;9.79;100.00;99036.25;5154397;27;20443;-59
2022/09/24 06:53:50;;;;;;;4.78;3.72;;;;;;;10.10;100.00;99027.06;5154192;27;20110;-59
2022/09/24 06:56:17;;;;;;;5.50;3.75;;;;;;;10.32;100.00;99046.63;5154270;27;20055;-59
2022/09/24 06:58:43;;;;;;;6.65;3.50;;;;;;;10.18;100.00;99069.06;5154157;27;20042;-59
2022/09/24 07:01:09;;;;;;;4.20;3.20;;;;;;;10.38;100.00;99090.97;5154081;27;20053;-59
2022/09/24 07:03:37;;;;;;;6.78;3.55;;;;;;;10.46;100.00;99114.56;5153773;27;20505;-59
2022/09/24 07:06:05;;;;;;;4.25;3.40;;;;;;;10.44;100.00;99122.38;5153699;27;20514;-59
2022/09/24 07:08:33;;;;;;;5.85;2.88;;;;;;;10.55;100.00;99137.84;5153976;27;20420;-59
2022/09/24 07:10:59;;;;;;;3.30;3.00;;;;;;;10.76;100.00;99156.63;5154201;27;20051;-59
2022/09/24 07:13:25;;;;;;;3.85;2.78;;;;;;;10.62;100.00;99164.59;5153965;27;20047;-59
2022/09/24 07:15:52;;;;;;;4.85;2.63;;;;;;;10.68;100.00;99168.63;5153920;27;20047;-59
2022/09/24 07:18:19;;;;;;;3.78;2.75;;;;;;;10.75;100.00;99195.38;5153841;27;20046;-59
2022/09/24 07:20:50;;;;;;;3.60;2.97;;;;;;;10.68;100.00;99198.00;5153608;27;20046;-59
2022/09/24 07:23:17;;;;;;;3.70;3.10;;;;;;;10.74;100.00;99210.25;5153740;27;20520;-59
2022/09/24 07:25:44;;;;;;;4.63;3.05;;;;;;;10.79;100.00;99223.66;5153639;27;20429;-59
2022/09/24 07:28:12;;;;;;;3.67;3.00;;;;;;;10.78;100.00;99228.34;5153704;27;20048;-59
2022/09/24 07:30:39;;;;;;;3.72;3.22;;;;;;;10.72;100.00;99234.50;5153422;27;20055;-59
2022/09/24 07:33:06;;;;;;;3.95;3.08;;;;;;;10.52;100.00;99236.47;5153341;27;20497;-59
2022/09/24 07:35:33;;;;;;;4.68;2.90;;;;;;;10.29;100.00;99239.94;5153304;27;20055;-59
2022/09/24 07:38:01;;;;;;;5.57;3.33;;;;;;;10.42;100.00;99223.34;5153607;27;20429;-59
2022/09/24 07:40:28;;;;;;;2.70;2.40;;;;;;;10.39;100.00;99224.88;5153386;27;20043;-59
2022/09/24 07:42:55;;;;;;;3.22;2.92;;;;;;;10.51;100.00;99240.38;5152805;27;20046;-60
2022/09/24 07:45:22;;;;;;;4.18;3.08;;;;;;;10.77;100.00;99229.50;5152993;27;20057;-59
2022/09/24 07:47:56;;;;;;;3.60;2.78;;;;;;;10.90;100.00;99249.34;5153131;27;20077;-59
2022/09/24 07:50:22;;;;;;;3.92;2.92;;;;;;;10.54;100.00;99240.44;5153210;27;20050;-59
2022/09/24 07:52:50;;;;;;;6.75;2.97;;;;;;;10.43;100.00;99244.94;5153130;27;20067;-59
2022/09/24 07:55:16;;;;;;;2.92;2.55;;;;;;;10.92;100.00;99244.25;5153197;27;20067;-59
2022/09/24 07:57:46;;;;;;;4.07;2.88;;;;;;;11.47;100.00;99265.97;5152790;27;20532;-59
2022/09/24 08:00:16;;;;;;;2.63;2.42;;;;;;;12.03;100.00;99295.47;5152974;27;20047;-59
2022/09/24 08:02:42;;;;;;;2.17;2.08;;;;;;;12.46;100.00;99299.56;5152863;27;20082;-59
2022/09/24 08:05:09;;;;;;;2.20;1.90;;;;;;;12.63;100.00;99278.16;5152935;27;20059;-59
2022/09/24 08:07:36;;;;;;;2.65;2.20;;;;;;;12.62;100.00;99236.09;5153011;27;20054;-59
2022/09/24 08:10:02;;;;;;;2.20;2.00;;;;;;;13.04;100.00;99159.84;5152943;27;20047;-59
2022/09/24 08:12:28;;;;;;;2.53;2.33;;;;;;;13.07;100.00;99052.53;5153119;27;20046;-59
2022/09/24 08:14:54;;;;;;;3.10;2.10;;;;;;;12.39;100.00;98999.78;5153051;27;20047;-59
2022/09/24 08:17:21;;;;;;;4.07;1.98;;;;;;;12.32;100.00;99013.47;5152834;27;20055;-59
2022/09/24 08:19:48;;;;;;;1.95;1.75;;;;;;;12.12;100.00;99012.91;5152648;27;20501;-59
2022/09/24 08:22:14;;;;;;;5.22;2.25;;;;;;;12.42;100.00;99048.50;5152720;27;20054;-59
2022/09/24 08:24:40;;;;;;;1.73;1.63;;;;;;;12.16;100.00;99048.66;5152792;27;20129;-59
2022/09/24 08:27:07;;;;;;;4.53;1.95;;;;;;;11.91;100.00;99035.50;5152366;27;20177;-59
2022/09/24 08:29:33;;;;;;;1.83;1.73;;;;;;;12.12;100.00;99037.66;5152165;27;20079;-59
2022/09/24 08:31:59;;;;;;;2.28;2.08;;;;;;;12.29;100.00;99062.94;5152400;27;20069;-59
2022/09/24 08:34:26;;;;;;;3.05;1.80;;;;;;;12.07;100.00;99087.47;5152326;27;20421;-59
2022/09/24 08:36:53;;;;;;;2.50;2.20;;;;;;;12.85;100.00;99013.09;5152089;27;20050;-59
2022/09/24 08:39:19;;;;;;;1.50;1.40;;;;;;;13.22;100.00;98799.38;5152449;27;20057;-59
2022/09/24 08:41:55;;;;;;;2.15;1.85;;;;;;;13.17;100.00;98767.53;5152187;27;20506;-59
2022/09/24 08:47:26;;;;;;;1.75;1.52;;;;;;;13.67;100.00;98554.69;5152067;27;20099;-60
2022/09/24 08:50:01;;;;;;;2.00;1.80;;;;;;;13.90;100.00;98406.16;5152095;27;20054;-59
2022/09/24 08:52:43;;;;;;;4.00;1.83;;;;;;;13.72;100.00;98296.09;5151965;27;20491;-59
2022/09/24 08:55:13;;;;;;;2.75;1.52;;;;;;;13.00;100.00;98422.38;5152006;27;20057;-60
2022/09/24 08:57:48;;;;;;;2.20;2.00;;;;;;;12.70;100.00;98488.88;5151920;27;20056;-59
2022/09/24 09:00:15;;;;;;;2.50;1.67;;;;;;;13.13;100.00;98547.34;5151779;27;20056;-59
2022/09/24 09:02:52;;;;;;;3.25;1.80;;;;;;;13.09;100.00;98622.81;5152334;27;20043;-59
2022/09/24 09:05:26;;;;;;;2.50;2.10;;;;;;;13.07;100.00;98653.50;5152066;27;20046;-59
2022/09/24 09:08:00;;;;;;;2.15;1.90;;;;;;;13.47;100.00;98458.00;5151786;27;20047;-59
2022/09/24 09:10:32;;;;;;;2.80;1.92;;;;;;;13.64;100.00;98391.00;5151936;27;20069;-60
2022/09/24 09:13:05;;;;;;;1.80;1.70;;;;;;;13.82;100.00;98206.28;5151739;27;20054;-59
2022/09/24 09:15:34;;;;;;;1.67;1.33;;;;;;;14.18;100.00;98092.88;5151904;27;20046;-59
2022/09/24 09:18:05;;;;;;;1.63;1.52;;;;;;;15.20;100.00;97973.75;5151564;27;20050;-59
2022/09/24 09:20:37;;;;;;;2.47;2.15;;;;;;;14.50;100.00;97955.34;5151689;27;20047;-59
2022/09/24 09:23:13;;;;;;;2.00;1.80;;;;;;;14.67;100.00;97994.84;5151502;27;20557;-59
2022/09/24 09:25:46;;;;;;;4.38;1.83;;;;;;;14.46;100.00;98009.75;5151510;27;20048;-59
2022/09/24 09:28:14;;;;;;;2.40;1.80;;;;;;;14.34;100.00;98071.00;5151666;27;20050;-60
2022/09/24 09:30:53;;;;;;;4.22;2.50;;;;;;;14.38;100.00;98035.09;5151549;27;20459;-60
2022/09/24 09:33:32;;;;;;;3.45;2.28;;;;;;;14.20;100.00;98005.81;5151701;27;20070;-60
2022/09/24 09:36:09;;;;;;;2.20;1.98;;;;;;;14.16;100.00;98018.88;5151255;27;20055;-60
2022/09/24 09:38:44;;;;;;;2.40;2.17;;;;;;;13.72;100.00;98086.75;5151573;27;20047;-60
2022/09/24 09:41:21;;;;;;;2.20;2.00;;;;;;;13.65;100.00;98108.88;5151271;27;20466;-60
2022/09/24 09:43:47;;;;;;;4.13;1.90;;;;;;;13.50;100.00;98080.75;5151483;27;20061;-60
2022/09/24 09:46:19;;;;;;;2.20;1.98;;;;;;;13.75;100.00;98008.03;5151122;27;20058;-60
2022/09/24 09:48:51;;;;;;;3.70;2.80;;;;;;;14.43;100.00;98007.84;5151188;27;20422;-60
2022/09/24 09:51:20;;;;;;;5.50;2.20;;;;;;;14.16;100.00;97949.19;5151584;27;20042;-60
2022/09/24 09:53:57;;;;;;;3.15;1.60;;;;;;;14.30;100.00;97946.22;5151070;27;20051;-60
2022/09/24 09:56:27;;;;;;;1.85;1.50;;;;;;;14.42;100.00;97900.69;5151133;27;20079;-60
2022/09/24 09:59:02;;;;;;;2.00;1.90;;;;;;;13.82;100.00;97900.50;5151012;27;20042;-60
2022/09/24 10:01:32;;;;;;;1.40;1.30;;;;;;;14.45;100.00;97905.38;5151512;27;20100;-60
2022/09/24 10:04:01;;;;;;;1.92;1.83;;;;;;;14.45;100.00;97903.41;5151030;27;20046;-60
2022/09/24 10:06:30;;;;;;;3.70;1.95;;;;;;;14.34;100.00;97900.06;5151481;27;20055;-60
2022/09/24 10:09:08;;;;;;;2.85;2.22;;;;;;;14.29;100.00;97897.78;5154832;27;20043;-60
2022/09/24 10:11:34;;;;;;;1.50;1.40;;;;;;;14.46;100.00;97902.22;5154719;27;20057;-60
2022/09/24 10:14:09;;;;;;;2.17;1.98;;;;;;;14.24;100.00;97893.53;5154828;27;20043;-60
2022/09/24 10:16:38;;;;;;;2.00;1.80;;;;;;;14.00;100.00;97880.97;5154618;27;20051;-60
2022/09/24 10:19:19;;;;;;;2.28;2.08;;;;;;;13.94;100.00;97883.41;5154662;27;20095;-60
2022/09/24 10:21:46;;;;;;;2.45;2.13;;;;;;;13.40;100.00;97886.19;5155078;27;20046;-60
2022/09/24 10:24:18;;;;;;;3.17;2.00;;;;;;;13.53;100.00;97945.00;5154652;27;20064;-60
2022/09/24 10:26:45;;;;;;;3.10;2.03;;;;;;;14.22;100.00;97953.03;5154456;27;20054;-60
2022/09/24 10:32:00;;;;;;;1.98;1.88;;;;;;;14.85;100.00;97884.16;5154801;27;20566;-60
2022/09/24 10:34:28;;;;;;;3.05;2.85;;;;;;;15.12;100.00;97880.47;5154233;27;20095;-60
2022/09/24 10:37:00;;;;;;;2.97;2.78;;;;;;;14.84;100.00;97868.81;5154614;27;20063;-60
2022/09/24 10:39:27;;;;;;;2.13;2.03;;;;;;;14.53;100.00;97869.03;5154121;27;20049;-60
2022/09/24 10:41:55;;;;;;;3.35;2.20;;;;;;;13.64;100.00;97884.25;5154335;27;20070;-60
2022/09/24 10:44:23;;;;;;;2.35;2.15;;;;;;;14.27;100.00;97876.16;5154150;27;20069;-60
2022/09/24 10:47:03;;;;;;;4.05;2.08;;;;;;;13.96;100.00;97878.28;5153939;27;20066;-60
2022/09/24 10:49:43;;;;;;;3.30;1.92;;;;;;;14.32;100.00;97878.41;5154279;27;20050;-60
2022/09/24 10:52:23;;;;;;;2.00;1.90;;;;;;;13.94;100.00;97874.38;5153852;27;20046;-60
2022/09/24 10:54:57;;;;;;;2.47;2.03;;;;;;;14.21;100.00;97886.09;5154485;27;20046;-60
2022/09/24 10:57:30;;;;;;;2.03;1.90;;;;;;;14.26;100.00;97888.38;5153905;27;20079;-60
2022/09/24 11:00:06;;;;;;;1.60;1.50;;;;;;;14.89;100.00;97895.91;5154294;27;20043;-60
2022/09/24 11:03:07;;;;;;;3.00;2.03;;;;;;;15.39;100.00;97900.38;5154125;27;20053;-60
2022/09/24 11:05:39;;;;;;;2.35;2.15;;;;;;;14.98;100.00;97900.84;5146917;27;20107;-60
2022/09/24 11:08:19;;;;;;;2.17;1.70;;;;;;;15.35;100.00;97899.69;5154091;27;20057;-60
2022/09/24 11:11:10;;;;;;;2.25;1.92;;;;;;;14.85;100.00;97899.94;5153766;27;20053;-60
2022/09/24 11:13:44;;;;;;;2.47;2.30;;;;;;;14.56;100.00;97901.28;5153755;27;20051;-60
2022/09/24 11:16:40;;;;;;;2.73;2.13;;;;;;;14.64;100.00;97901.91;5153564;27;20057;-60
2022/09/24 11:19:16;;;;;;;2.13;2.00;;;;;;;14.71;100.00;97904.53;5152533;27;20046;-60
2022/09/24 11:22:00;;;;;;;2.25;2.00;;;;;;;14.56;100.00;97870.94;5153617;27;20086;-60
2022/09/24 11:24:47;;;;;;;3.78;2.63;;;;;;;13.98;100.00;97870.34;5153431;27;20111;-60
2022/09/24 11:27:32;;;;;;;2.25;2.10;;;;;;;13.55;100.00;97859.22;5153429;27;20522;-60
2022/09/24 11:30:09;;;;;;;2.83;2.50;;;;;;;13.85;100.00;97850.09;5153643;27;20055;-60
2022/09/24 11:32:48;;;;;;;3.45;2.20;;;;;;;13.58;100.00;97855.63;5153324;27;20057;-60
2022/09/24 11:35:44;;;;;;;3.95;2.30;;;;;;;13.62;100.00;97857.13;5153972;27;20046;-60
2022/09/24 11:38:16;;;;;;;2.50;1.92;;;;;;;13.87;100.00;97855.97;5153257;27;20188;-60
2022/09/24 11:41:03;;;;;;;3.30;2.25;;;;;;;14.02;100.00;97859.25;5153408;27;20047;-60
2022/09/24 11:43:54;;;;;;;2.47;2.28;;;;;;;14.67;100.00;97854.19;5153467;27;20050;-60
2022/09/24 11:46:34;;;;;;;2.47;2.10;;;;;;;14.36;100.00;97865.38;5152632;27;20057;-59
2022/09/24 11:49:15;;;;;;;3.58;2.40;;;;;;;14.42;100.00;97851.06;5153240;27;20051;-60
2022/09/24 11:51:53;;;;;;;3.10;2.83;;;;;;;14.11;100.00;97860.28;5153158;27;20050;-60
2022/09/24 11:54:25;;;;;;;2.42;1.92;;;;;;;14.20;100.00;97856.22;5153099;27;20053;-60
2022/09/24 11:56:58;;;;;;;3.38;2.95;;;;;;;14.61;100.00;97863.38;5153275;27;20046;-60